Mahlon Sweet Field Eugene US
ICAO: KEUG
IATA: EUG
Category: Medium
Scheduled Services: Yes

Elevation: 374 ft
TransAlt. 18000 ft.

Airport Communications:
CASCADE APP/DEP:119.6
ATIS:125.225
EUGENE CLNC DEL:121.7
CTAF:118.9
GND:121.7
MC MINNVILLE RDO:122.3
EUGENE TWR:118.9
UNICOM:122.95

KEUG Zoom In..

If you have problems with the map follow the link
https://www.worldairports.se/pages/airport.php?
ICAO=KEUG

Runways:

(A) RW 16L length 6000 ft width 150 ft
ILS 111.75 / hdg 163

(B) RW 16R length 8009 ft width 150 ft
ILS 110.10 / hdg 163

(C) RW 34L length 8009 ft width 150 ft
---- / hdg 343

(D) RW 34R length 6000 ft width 150 ft
---- / hdg 343

Location; KEUG
Day. 14 / Time. 20.54 Zulu
* Altimeter: 29.74
* Temperature: 09° c. 48.2°f.
* Wind from: 240° Speed 26 kn with Gusts up to 34 kn.
Dewpoint: 05° c.
Visibility: 8 Statute Miles.
Clouds: Few 4000 ft.
Clouds: Broken 6500 ft.
Clouds: Overcast 9000 ft.
Conditions: Light Rain.

KEUG 142054Z 24026G34KT 8SM -RA FEW040 BKN065 OVC090 09/05 A2974 RMK AO2 PK WND 23039/2036 RAB50 PRESRR SLP071 P0000 60000 T00940050 53037


Wind From 240°
Speed 26 kn.

 
 
jpsmedia.com for Web Design worldairports.se 2018   terms of use